sensor_id;sensor_type;location;lat;lon;timestamp;P1;durP1;ratioP1;P2;durP2;ratioP2
27740;SDS011;15134;48.768;9.184;2023-07-29T00:00:45;968.50;;;870.65;;
27740;SDS011;15134;48.768;9.184;2023-07-29T00:03:15;968.03;;;870.27;;
27740;SDS011;15134;48.768;9.184;2023-07-29T00:05:40;971.23;;;873.20;;
27740;SDS011;15134;48.768;9.184;2023-07-29T00:08:06;974.23;;;876.13;;
27740;SDS011;15134;48.768;9.184;2023-07-29T00:10:34;970.42;;;872.53;;
27740;SDS011;15134;48.768;9.184;2023-07-29T00:13:05;975.53;;;877.40;;
27740;SDS011;15134;48.768;9.184;2023-07-29T00:15:35;972.67;;;874.70;;
27740;SDS011;15134;48.768;9.184;2023-07-29T00:18:01;970.80;;;872.80;;
27740;SDS011;15134;48.768;9.184;2023-07-29T00:20:28;976.13;;;878.05;;
27740;SDS011;15134;48.768;9.184;2023-07-29T00:22:54;979.72;;;881.65;;
27740;SDS011;15134;48.768;9.184;2023-07-29T00:25:20;976.15;;;878.15;;
27740;SDS011;15134;48.768;9.184;2023-07-29T00:27:47;977.78;;;879.88;;
27740;SDS011;15134;48.768;9.184;2023-07-29T00:30:13;980.75;;;882.65;;
27740;SDS011;15134;48.768;9.184;2023-07-29T00:32:39;974.42;;;876.38;;
27740;SDS011;15134;48.768;9.184;2023-07-29T00:35:05;977.93;;;879.90;;
27740;SDS011;15134;48.768;9.184;2023-07-29T00:37:31;973.42;;;875.65;;
27740;SDS011;15134;48.768;9.184;2023-07-29T00:39:57;978.73;;;880.63;;
27740;SDS011;15134;48.768;9.184;2023-07-29T00:42:23;977.53;;;879.40;;
27740;SDS011;15134;48.768;9.184;2023-07-29T00:44:49;976.60;;;878.42;;
27740;SDS011;15134;48.768;9.184;2023-07-29T00:47:18;976.77;;;878.83;;
27740;SDS011;15134;48.768;9.184;2023-07-29T00:49:47;978.72;;;880.58;;
27740;SDS011;15134;48.768;9.184;2023-07-29T00:52:13;977.10;;;879.27;;
27740;SDS011;15134;48.768;9.184;2023-07-29T00:54:39;977.60;;;879.53;;
27740;SDS011;15134;48.768;9.184;2023-07-29T00:57:06;980.00;;;881.97;;
27740;SDS011;15134;48.768;9.184;2023-07-29T00:59:35;987.63;;;889.15;;
27740;SDS011;15134;48.768;9.184;2023-07-29T01:02:01;973.53;;;875.83;;
27740;SDS011;15134;48.768;9.184;2023-07-29T01:04:32;980.95;;;882.80;;
27740;SDS011;15134;48.768;9.184;2023-07-29T01:07:14;977.90;;;879.85;;
27740;SDS011;15134;48.768;9.184;2023-07-29T01:15:23;978.30;;;880.30;;
27740;SDS011;15134;48.768;9.184;2023-07-29T01:18:18;974.80;;;876.88;;
27740;SDS011;15134;48.768;9.184;2023-07-29T01:20:59;977.20;;;879.20;;
27740;SDS011;15134;48.768;9.184;2023-07-29T01:23:30;974.67;;;876.92;;
27740;SDS011;15134;48.768;9.184;2023-07-29T01:25:58;979.72;;;881.33;;
27740;SDS011;15134;48.768;9.184;2023-07-29T01:28:24;975.05;;;876.97;;
27740;SDS011;15134;48.768;9.184;2023-07-29T01:30:57;972.47;;;874.65;;
27740;SDS011;15134;48.768;9.184;2023-07-29T01:33:45;975.55;;;877.63;;
27740;SDS011;15134;48.768;9.184;2023-07-29T01:36:21;976.30;;;878.40;;
27740;SDS011;15134;48.768;9.184;2023-07-29T01:38:54;980.55;;;882.25;;
27740;SDS011;15134;48.768;9.184;2023-07-29T01:41:22;985.13;;;886.88;;
27740;SDS011;15134;48.768;9.184;2023-07-29T01:43:50;982.53;;;884.53;;
27740;SDS011;15134;48.768;9.184;2023-07-29T01:46:17;978.78;;;880.75;;
27740;SDS011;15134;48.768;9.184;2023-07-29T01:48:43;980.38;;;882.22;;
27740;SDS011;15134;48.768;9.184;2023-07-29T01:51:15;978.78;;;880.85;;
27740;SDS011;15134;48.768;9.184;2023-07-29T01:53:40;977.28;;;879.38;;
27740;SDS011;15134;48.768;9.184;2023-07-29T01:56:06;977.67;;;879.78;;
27740;SDS011;15134;48.768;9.184;2023-07-29T01:58:37;981.87;;;883.67;;
27740;SDS011;15134;48.768;9.184;2023-07-29T02:01:02;979.47;;;881.47;;
27740;SDS011;15134;48.768;9.184;2023-07-29T02:03:31;974.87;;;877.10;;
27740;SDS011;15134;48.768;9.184;2023-07-29T02:05:57;980.55;;;882.40;;
27740;SDS011;15134;48.768;9.184;2023-07-29T02:08:23;969.90;;;872.25;;
27740;SDS011;15134;48.768;9.184;2023-07-29T02:10:48;977.25;;;879.33;;
27740;SDS011;15134;48.768;9.184;2023-07-29T02:13:14;968.93;;;871.40;;
27740;SDS011;15134;48.768;9.184;2023-07-29T02:15:40;964.90;;;867.23;;
27740;SDS011;15134;48.768;9.184;2023-07-29T02:18:06;972.83;;;875.03;;
27740;SDS011;15134;48.768;9.184;2023-07-29T02:20:32;968.70;;;870.90;;
27740;SDS011;15134;48.768;9.184;2023-07-29T02:22:58;965.63;;;868.03;;
27740;SDS011;15134;48.768;9.184;2023-07-29T02:25:24;967.65;;;869.92;;
27740;SDS011;15134;48.768;9.184;2023-07-29T02:27:50;972.22;;;874.22;;
27740;SDS011;15134;48.768;9.184;2023-07-29T02:30:17;969.47;;;871.63;;
27740;SDS011;15134;48.768;9.184;2023-07-29T02:32:43;969.80;;;871.80;;
27740;SDS011;15134;48.768;9.184;2023-07-29T02:35:09;965.40;;;867.60;;
27740;SDS011;15134;48.768;9.184;2023-07-29T02:37:35;967.28;;;869.58;;
27740;SDS011;15134;48.768;9.184;2023-07-29T02:40:01;968.25;;;870.45;;
27740;SDS011;15134;48.768;9.184;2023-07-29T02:42:27;960.60;;;863.13;;
27740;SDS011;15134;48.768;9.184;2023-07-29T02:44:53;966.73;;;869.03;;
27740;SDS011;15134;48.768;9.184;2023-07-29T02:47:19;969.03;;;871.08;;
27740;SDS011;15134;48.768;9.184;2023-07-29T02:49:44;966.10;;;868.50;;
27740;SDS011;15134;48.768;9.184;2023-07-29T02:52:10;967.93;;;870.17;;
27740;SDS011;15134;48.768;9.184;2023-07-29T02:54:38;966.75;;;869.08;;
27740;SDS011;15134;48.768;9.184;2023-07-29T02:57:03;967.08;;;869.38;;
27740;SDS011;15134;48.768;9.184;2023-07-29T02:59:30;968.10;;;870.38;;
27740;SDS011;15134;48.768;9.184;2023-07-29T03:01:55;971.15;;;873.28;;
27740;SDS011;15134;48.768;9.184;2023-07-29T03:04:21;968.85;;;871.00;;
27740;SDS011;15134;48.768;9.184;2023-07-29T03:06:49;965.23;;;867.63;;
27740;SDS011;15134;48.768;9.184;2023-07-29T03:09:15;971.58;;;873.83;;
27740;SDS011;15134;48.768;9.184;2023-07-29T03:11:41;974.30;;;876.47;;
27740;SDS011;15134;48.768;9.184;2023-07-29T03:14:07;975.47;;;877.47;;
27740;SDS011;15134;48.768;9.184;2023-07-29T03:16:32;972.13;;;874.30;;
27740;SDS011;15134;48.768;9.184;2023-07-29T03:19:02;968.55;;;870.78;;
27740;SDS011;15134;48.768;9.184;2023-07-29T03:21:28;974.60;;;876.50;;
27740;SDS011;15134;48.768;9.184;2023-07-29T03:23:54;971.30;;;873.67;;
27740;SDS011;15134;48.768;9.184;2023-07-29T03:26:20;970.63;;;872.78;;
27740;SDS011;15134;48.768;9.184;2023-07-29T03:28:47;970.42;;;872.45;;
27740;SDS011;15134;48.768;9.184;2023-07-29T03:31:13;970.35;;;872.47;;
27740;SDS011;15134;48.768;9.184;2023-07-29T03:33:39;972.25;;;874.15;;
27740;SDS011;15134;48.768;9.184;2023-07-29T03:36:05;971.35;;;873.53;;
27740;SDS011;15134;48.768;9.184;2023-07-29T03:38:31;973.95;;;875.85;;
27740;SDS011;15134;48.768;9.184;2023-07-29T03:40:58;973.47;;;875.57;;
27740;SDS011;15134;48.768;9.184;2023-07-29T03:43:24;979.87;;;881.77;;
27740;SDS011;15134;48.768;9.184;2023-07-29T03:45:49;976.88;;;878.90;;
27740;SDS011;15134;48.768;9.184;2023-07-29T03:48:15;975.03;;;877.13;;
27740;SDS011;15134;48.768;9.184;2023-07-29T03:50:41;977.17;;;879.07;;
27740;SDS011;15134;48.768;9.184;2023-07-29T03:53:13;974.33;;;876.37;;
27740;SDS011;15134;48.768;9.184;2023-07-29T03:55:38;976.97;;;878.70;;
27740;SDS011;15134;48.768;9.184;2023-07-29T03:58:04;975.75;;;877.80;;
27740;SDS011;15134;48.768;9.184;2023-07-29T04:00:30;974.60;;;876.50;;
27740;SDS011;15134;48.768;9.184;2023-07-29T04:02:56;981.85;;;883.58;;
27740;SDS011;15134;48.768;9.184;2023-07-29T04:05:22;973.08;;;875.15;;
27740;SDS011;15134;48.768;9.184;2023-07-29T04:07:47;977.67;;;879.80;;
27740;SDS011;15134;48.768;9.184;2023-07-29T04:10:13;980.20;;;881.93;;
27740;SDS011;15134;48.768;9.184;2023-07-29T04:12:39;984.42;;;886.00;;
27740;SDS011;15134;48.768;9.184;2023-07-29T04:15:06;984.50;;;886.08;;
27740;SDS011;15134;48.768;9.184;2023-07-29T04:17:32;983.38;;;885.05;;
27740;SDS011;15134;48.768;9.184;2023-07-29T04:19:58;971.17;;;873.27;;
27740;SDS011;15134;48.768;9.184;2023-07-29T04:22:29;974.55;;;876.63;;
27740;SDS011;15134;48.768;9.184;2023-07-29T04:24:54;973.08;;;875.28;;
27740;SDS011;15134;48.768;9.184;2023-07-29T04:27:20;979.20;;;880.90;;
27740;SDS011;15134;48.768;9.184;2023-07-29T04:29:46;983.67;;;885.45;;
27740;SDS011;15134;48.768;9.184;2023-07-29T04:32:12;980.03;;;881.95;;
27740;SDS011;15134;48.768;9.184;2023-07-29T04:34:41;980.65;;;882.53;;
27740;SDS011;15134;48.768;9.184;2023-07-29T04:37:06;986.67;;;888.07;;
27740;SDS011;15134;48.768;9.184;2023-07-29T04:39:34;973.97;;;876.15;;
27740;SDS011;15134;48.768;9.184;2023-07-29T04:42:00;977.58;;;879.67;;
27740;SDS011;15134;48.768;9.184;2023-07-29T04:44:26;980.42;;;882.22;;
27740;SDS011;15134;48.768;9.184;2023-07-29T04:46:52;979.27;;;881.37;;
27740;SDS011;15134;48.768;9.184;2023-07-29T04:49:17;976.80;;;878.85;;
27740;SDS011;15134;48.768;9.184;2023-07-29T04:51:43;982.00;;;883.70;;
27740;SDS011;15134;48.768;9.184;2023-07-29T04:54:10;988.93;;;890.13;;
27740;SDS011;15134;48.768;9.184;2023-07-29T04:56:36;980.05;;;881.80;;
27740;SDS011;15134;48.768;9.184;2023-07-29T04:59:02;985.20;;;886.77;;
27740;SDS011;15134;48.768;9.184;2023-07-29T05:01:27;986.47;;;887.90;;
27740;SDS011;15134;48.768;9.184;2023-07-29T05:03:54;982.55;;;884.35;;
27740;SDS011;15134;48.768;9.184;2023-07-29T05:06:20;980.42;;;882.22;;
27740;SDS011;15134;48.768;9.184;2023-07-29T05:08:45;981.35;;;883.17;;
27740;SDS011;15134;48.768;9.184;2023-07-29T05:11:11;983.73;;;885.60;;
27740;SDS011;15134;48.768;9.184;2023-07-29T05:13:37;980.83;;;882.65;;
27740;SDS011;15134;48.768;9.184;2023-07-29T05:16:03;982.50;;;884.30;;
27740;SDS011;15134;48.768;9.184;2023-07-29T05:18:29;978.13;;;880.30;;
27740;SDS011;15134;48.768;9.184;2023-07-29T05:20:55;975.58;;;877.65;;
27740;SDS011;15134;48.768;9.184;2023-07-29T05:23:21;978.90;;;880.88;;
27740;SDS011;15134;48.768;9.184;2023-07-29T05:25:47;968.40;;;870.78;;
27740;SDS011;15134;48.768;9.184;2023-07-29T05:28:12;972.83;;;874.93;;
27740;SDS011;15134;48.768;9.184;2023-07-29T05:30:39;971.15;;;873.45;;
27740;SDS011;15134;48.768;9.184;2023-07-29T05:33:05;972.27;;;874.33;;
27740;SDS011;15134;48.768;9.184;2023-07-29T05:35:34;972.92;;;875.03;;
27740;SDS011;15134;48.768;9.184;2023-07-29T05:38:00;972.25;;;874.22;;
27740;SDS011;15134;48.768;9.184;2023-07-29T05:40:26;964.40;;;866.90;;
27740;SDS011;15134;48.768;9.184;2023-07-29T05:42:54;969.40;;;871.50;;
27740;SDS011;15134;48.768;9.184;2023-07-29T05:45:20;965.97;;;868.38;;
27740;SDS011;15134;48.768;9.184;2023-07-29T05:47:46;973.67;;;875.67;;
27740;SDS011;15134;48.768;9.184;2023-07-29T05:50:11;982.20;;;883.87;;
27740;SDS011;15134;48.768;9.184;2023-07-29T05:52:38;983.20;;;884.75;;
27740;SDS011;15134;48.768;9.184;2023-07-29T05:55:04;985.38;;;886.92;;
27740;SDS011;15134;48.768;9.184;2023-07-29T05:57:30;990.20;;;891.28;;
27740;SDS011;15134;48.768;9.184;2023-07-29T05:59:56;991.40;;;892.63;;
27740;SDS011;15134;48.768;9.184;2023-07-29T06:02:22;993.83;;;895.17;;
27740;SDS011;15134;48.768;9.184;2023-07-29T06:04:54;1004.10;;;904.58;;
27740;SDS011;15134;48.768;9.184;2023-07-29T06:07:20;1011.45;;;911.75;;
27740;SDS011;15134;48.768;9.184;2023-07-29T06:09:46;1023.70;;;923.50;;
27740;SDS011;15134;48.768;9.184;2023-07-29T06:12:11;1027.28;;;927.03;;
27740;SDS011;15134;48.768;9.184;2023-07-29T06:14:37;1023.77;;;923.57;;
27740;SDS011;15134;48.768;9.184;2023-07-29T06:17:03;1035.70;;;935.03;;
27740;SDS011;15134;48.768;9.184;2023-07-29T06:19:29;1032.53;;;932.05;;
27740;SDS011;15134;48.768;9.184;2023-07-29T06:21:55;1034.00;;;933.50;;
27740;SDS011;15134;48.768;9.184;2023-07-29T06:24:21;1032.43;;;932.03;;
27740;SDS011;15134;48.768;9.184;2023-07-29T06:26:47;1044.37;;;943.50;;
27740;SDS011;15134;48.768;9.184;2023-07-29T06:29:13;1047.68;;;946.47;;
27740;SDS011;15134;48.768;9.184;2023-07-29T06:31:38;1047.70;;;946.70;;
27740;SDS011;15134;48.768;9.184;2023-07-29T06:34:04;1050.23;;;949.13;;
27740;SDS011;15134;48.768;9.184;2023-07-29T06:36:30;1051.05;;;949.83;;
27740;SDS011;15134;48.768;9.184;2023-07-29T06:38:56;1054.25;;;952.95;;
27740;SDS011;15134;48.768;9.184;2023-07-29T06:41:22;1050.00;;;948.77;;
27740;SDS011;15134;48.768;9.184;2023-07-29T06:43:48;1052.05;;;950.60;;
27740;SDS011;15134;48.768;9.184;2023-07-29T06:46:14;1051.33;;;949.90;;
27740;SDS011;15134;48.768;9.184;2023-07-29T06:48:40;1049.25;;;948.30;;
27740;SDS011;15134;48.768;9.184;2023-07-29T06:51:07;1051.07;;;949.97;;
27740;SDS011;15134;48.768;9.184;2023-07-29T06:53:33;1037.97;;;937.58;;
27740;SDS011;15134;48.768;9.184;2023-07-29T06:55:58;1046.93;;;946.03;;
27740;SDS011;15134;48.768;9.184;2023-07-29T06:58:24;1042.03;;;941.40;;
27740;SDS011;15134;48.768;9.184;2023-07-29T07:00:50;1034.50;;;933.90;;
27740;SDS011;15134;48.768;9.184;2023-07-29T07:03:16;1031.43;;;930.92;;
27740;SDS011;15134;48.768;9.184;2023-07-29T07:05:45;1032.57;;;932.03;;
27740;SDS011;15134;48.768;9.184;2023-07-29T07:08:10;1022.28;;;922.35;;
27740;SDS011;15134;48.768;9.184;2023-07-29T07:10:36;1017.13;;;917.42;;
27740;SDS011;15134;48.768;9.184;2023-07-29T07:13:02;1020.90;;;921.00;;
27740;SDS011;15134;48.768;9.184;2023-07-29T07:15:34;1011.55;;;911.85;;
27740;SDS011;15134;48.768;9.184;2023-07-29T07:17:59;1008.25;;;908.75;;
27740;SDS011;15134;48.768;9.184;2023-07-29T07:20:25;1002.87;;;903.47;;
27740;SDS011;15134;48.768;9.184;2023-07-29T07:22:51;1003.55;;;904.08;;
27740;SDS011;15134;48.768;9.184;2023-07-29T07:25:19;1004.00;;;904.60;;
27740;SDS011;15134;48.768;9.184;2023-07-29T07:27:47;998.90;;;899.60;;
27740;SDS011;15134;48.768;9.184;2023-07-29T07:30:15;998.55;;;899.58;;
27740;SDS011;15134;48.768;9.184;2023-07-29T07:32:43;998.30;;;899.40;;
27740;SDS011;15134;48.768;9.184;2023-07-29T07:35:10;1002.00;;;903.00;;
27740;SDS011;15134;48.768;9.184;2023-07-29T07:37:36;1002.27;;;903.13;;
27740;SDS011;15134;48.768;9.184;2023-07-29T07:40:01;1003.38;;;904.35;;
27740;SDS011;15134;48.768;9.184;2023-07-29T07:42:27;1003.08;;;903.80;;
27740;SDS011;15134;48.768;9.184;2023-07-29T07:44:53;1010.63;;;911.30;;
27740;SDS011;15134;48.768;9.184;2023-07-29T07:47:18;1008.67;;;909.33;;
27740;SDS011;15134;48.768;9.184;2023-07-29T07:49:44;1016.83;;;917.17;;
27740;SDS011;15134;48.768;9.184;2023-07-29T07:52:10;1008.08;;;908.90;;
27740;SDS011;15134;48.768;9.184;2023-07-29T07:54:35;1005.63;;;906.42;;
27740;SDS011;15134;48.768;9.184;2023-07-29T07:57:01;1006.23;;;906.97;;
27740;SDS011;15134;48.768;9.184;2023-07-29T07:59:27;1003.78;;;904.83;;
27740;SDS011;15134;48.768;9.184;2023-07-29T08:01:53;1012.77;;;913.17;;
27740;SDS011;15134;48.768;9.184;2023-07-29T08:04:19;1009.22;;;909.80;;
27740;SDS011;15134;48.768;9.184;2023-07-29T08:06:44;1016.10;;;916.33;;
27740;SDS011;15134;48.768;9.184;2023-07-29T08:09:10;1023.60;;;923.72;;
27740;SDS011;15134;48.768;9.184;2023-07-29T08:11:36;1020.60;;;920.77;;
27740;SDS011;15134;48.768;9.184;2023-07-29T08:14:02;1012.85;;;913.53;;
27740;SDS011;15134;48.768;9.184;2023-07-29T08:16:27;1016.40;;;916.80;;
27740;SDS011;15134;48.768;9.184;2023-07-29T08:19:05;1023.90;;;924.05;;
27740;SDS011;15134;48.768;9.184;2023-07-29T08:21:32;1035.25;;;934.58;;
27740;SDS011;15134;48.768;9.184;2023-07-29T08:23:57;1049.80;;;948.80;;
27740;SDS011;15134;48.768;9.184;2023-07-29T08:26:23;1052.13;;;950.83;;
27740;SDS011;15134;48.768;9.184;2023-07-29T08:28:49;1056.27;;;954.93;;
27740;SDS011;15134;48.768;9.184;2023-07-29T08:31:20;1053.85;;;952.55;;
27740;SDS011;15134;48.768;9.184;2023-07-29T08:33:46;1051.30;;;950.28;;
27740;SDS011;15134;48.768;9.184;2023-07-29T08:36:12;1062.73;;;961.03;;
27740;SDS011;15134;48.768;9.184;2023-07-29T08:38:37;1060.85;;;959.28;;
27740;SDS011;15134;48.768;9.184;2023-07-29T08:41:06;1054.63;;;953.53;;
27740;SDS011;15134;48.768;9.184;2023-07-29T08:43:38;1058.85;;;957.47;;
27740;SDS011;15134;48.768;9.184;2023-07-29T08:46:10;1063.55;;;962.05;;
27740;SDS011;15134;48.768;9.184;2023-07-29T08:48:40;1063.05;;;961.50;;
27740;SDS011;15134;48.768;9.184;2023-07-29T08:51:07;1080.10;;;977.83;;
27740;SDS011;15134;48.768;9.184;2023-07-29T08:53:39;1098.47;;;995.45;;
27740;SDS011;15134;48.768;9.184;2023-07-29T08:56:05;1138.07;;;999.90;;
27740;SDS011;15134;48.768;9.184;2023-07-29T08:58:32;1175.05;;;999.90;;
27740;SDS011;15134;48.768;9.184;2023-07-29T09:00:58;1206.63;;;999.90;;
27740;SDS011;15134;48.768;9.184;2023-07-29T09:03:27;1223.18;;;999.90;;
27740;SDS011;15134;48.768;9.184;2023-07-29T09:05:53;1239.32;;;999.90;;
27740;SDS011;15134;48.768;9.184;2023-07-29T09:08:22;1250.93;;;999.90;;
27740;SDS011;15134;48.768;9.184;2023-07-29T09:10:52;1253.32;;;999.90;;
27740;SDS011;15134;48.768;9.184;2023-07-29T09:13:19;1241.45;;;999.90;;
27740;SDS011;15134;48.768;9.184;2023-07-29T09:15:45;1226.82;;;999.90;;
27740;SDS011;15134;48.768;9.184;2023-07-29T09:18:20;1215.30;;;999.90;;
27740;SDS011;15134;48.768;9.184;2023-07-29T09:20:47;1205.53;;;999.90;;
27740;SDS011;15134;48.768;9.184;2023-07-29T09:23:14;1193.75;;;999.90;;
27740;SDS011;15134;48.768;9.184;2023-07-29T09:25:43;1196.10;;;999.90;;
27740;SDS011;15134;48.768;9.184;2023-07-29T09:28:12;1192.28;;;999.90;;
27740;SDS011;15134;48.768;9.184;2023-07-29T09:30:39;1202.13;;;999.90;;
27740;SDS011;15134;48.768;9.184;2023-07-29T09:33:07;1201.68;;;999.90;;
27740;SDS011;15134;48.768;9.184;2023-07-29T09:35:33;1213.50;;;999.90;;
27740;SDS011;15134;48.768;9.184;2023-07-29T09:38:00;1208.20;;;999.90;;
27740;SDS011;15134;48.768;9.184;2023-07-29T09:40:36;1209.95;;;999.90;;
27740;SDS011;15134;48.768;9.184;2023-07-29T09:43:02;1198.55;;;999.90;;
27740;SDS011;15134;48.768;9.184;2023-07-29T09:45:35;1189.63;;;999.90;;
27740;SDS011;15134;48.768;9.184;2023-07-29T09:48:02;1180.10;;;999.90;;
27740;SDS011;15134;48.768;9.184;2023-07-29T09:50:30;1177.28;;;999.90;;
27740;SDS011;15134;48.768;9.184;2023-07-29T09:52:56;1178.88;;;999.90;;
27740;SDS011;15134;48.768;9.184;2023-07-29T09:55:28;1172.55;;;999.90;;
27740;SDS011;15134;48.768;9.184;2023-07-29T09:57:57;1169.22;;;999.90;;
27740;SDS011;15134;48.768;9.184;2023-07-29T10:00:29;1170.72;;;999.90;;
27740;SDS011;15134;48.768;9.184;2023-07-29T10:02:55;1168.47;;;999.90;;
27740;SDS011;15134;48.768;9.184;2023-07-29T10:05:22;1181.18;;;999.90;;
27740;SDS011;15134;48.768;9.184;2023-07-29T10:07:52;1187.47;;;999.90;;
27740;SDS011;15134;48.768;9.184;2023-07-29T10:10:18;1202.78;;;999.90;;
27740;SDS011;15134;48.768;9.184;2023-07-29T10:12:46;1204.33;;;999.90;;
27740;SDS011;15134;48.768;9.184;2023-07-29T10:15:12;1207.50;;;999.90;;
27740;SDS011;15134;48.768;9.184;2023-07-29T10:17:39;1208.63;;;999.90;;
27740;SDS011;15134;48.768;9.184;2023-07-29T10:20:10;1175.50;;;999.90;;
27740;SDS011;15134;48.768;9.184;2023-07-29T10:22:40;1181.50;;;999.90;;
27740;SDS011;15134;48.768;9.184;2023-07-29T10:25:08;1174.68;;;999.90;;
27740;SDS011;15134;48.768;9.184;2023-07-29T10:27:53;1160.28;;;999.90;;
27740;SDS011;15134;48.768;9.184;2023-07-29T10:30:28;1162.90;;;999.90;;
27740;SDS011;15134;48.768;9.184;2023-07-29T10:32:54;1161.47;;;999.90;;
27740;SDS011;15134;48.768;9.184;2023-07-29T10:35:23;1155.53;;;999.90;;
27740;SDS011;15134;48.768;9.184;2023-07-29T10:37:50;1159.40;;;999.90;;
27740;SDS011;15134;48.768;9.184;2023-07-29T10:40:18;1161.20;;;999.90;;
27740;SDS011;15134;48.768;9.184;2023-07-29T10:43:01;1149.22;;;999.90;;
27740;SDS011;15134;48.768;9.184;2023-07-29T10:45:39;1146.72;;;999.90;;
27740;SDS011;15134;48.768;9.184;2023-07-29T10:48:11;1144.03;;;999.90;;
27740;SDS011;15134;48.768;9.184;2023-07-29T10:50:38;1139.47;;;999.90;;
27740;SDS011;15134;48.768;9.184;2023-07-29T10:53:04;1134.97;;;999.90;;
27740;SDS011;15134;48.768;9.184;2023-07-29T10:55:36;1130.32;;;999.90;;
27740;SDS011;15134;48.768;9.184;2023-07-29T11:00:40;1125.63;;;999.90;;
27740;SDS011;15134;48.768;9.184;2023-07-29T11:03:07;1117.40;;;999.90;;
27740;SDS011;15134;48.768;9.184;2023-07-29T11:05:46;1118.88;;;999.90;;
27740;SDS011;15134;48.768;9.184;2023-07-29T11:08:17;1126.47;;;999.90;;
27740;SDS011;15134;48.768;9.184;2023-07-29T11:13:30;1143.53;;;999.90;;
27740;SDS011;15134;48.768;9.184;2023-07-29T11:15:59;1143.78;;;999.90;;
27740;SDS011;15134;48.768;9.184;2023-07-29T11:18:27;1136.82;;;999.90;;
27740;SDS011;15134;48.768;9.184;2023-07-29T11:20:57;1137.25;;;999.90;;
27740;SDS011;15134;48.768;9.184;2023-07-29T11:23:27;1147.83;;;999.90;;
27740;SDS011;15134;48.768;9.184;2023-07-29T11:26:01;1141.73;;;999.90;;
27740;SDS011;15134;48.768;9.184;2023-07-29T11:28:27;1148.72;;;999.90;;
27740;SDS011;15134;48.768;9.184;2023-07-29T11:30:54;1138.97;;;999.90;;
27740;SDS011;15134;48.768;9.184;2023-07-29T11:33:22;1140.05;;;999.90;;
27740;SDS011;15134;48.768;9.184;2023-07-29T11:35:50;1140.47;;;999.90;;
27740;SDS011;15134;48.768;9.184;2023-07-29T11:38:16;1135.70;;;999.90;;
27740;SDS011;15134;48.768;9.184;2023-07-29T11:40:43;1139.35;;;999.90;;
27740;SDS011;15134;48.768;9.184;2023-07-29T11:43:18;1128.97;;;999.90;;
27740;SDS011;15134;48.768;9.184;2023-07-29T11:45:51;1135.63;;;999.90;;
27740;SDS011;15134;48.768;9.184;2023-07-29T11:48:17;1137.68;;;999.90;;
27740;SDS011;15134;48.768;9.184;2023-07-29T11:50:53;1135.60;;;999.90;;
27740;SDS011;15134;48.768;9.184;2023-07-29T11:53:25;1129.55;;;999.90;;
27740;SDS011;15134;48.768;9.184;2023-07-29T11:55:53;1126.22;;;999.90;;
27740;SDS011;15134;48.768;9.184;2023-07-29T11:58:20;1131.28;;;999.90;;
27740;SDS011;15134;48.768;9.184;2023-07-29T12:00:46;1128.57;;;999.90;;
27740;SDS011;15134;48.768;9.184;2023-07-29T12:03:12;1131.38;;;999.90;;
27740;SDS011;15134;48.768;9.184;2023-07-29T12:05:38;1130.82;;;999.90;;
27740;SDS011;15134;48.768;9.184;2023-07-29T12:08:04;1138.88;;;999.90;;
27740;SDS011;15134;48.768;9.184;2023-07-29T12:10:30;1139.57;;;999.90;;
27740;SDS011;15134;48.768;9.184;2023-07-29T12:12:58;1137.17;;;999.90;;
27740;SDS011;15134;48.768;9.184;2023-07-29T12:15:27;1132.67;;;999.90;;
27740;SDS011;15134;48.768;9.184;2023-07-29T12:17:54;1125.53;;;999.90;;
27740;SDS011;15134;48.768;9.184;2023-07-29T12:20:21;1128.83;;;999.90;;
27740;SDS011;15134;48.768;9.184;2023-07-29T12:22:58;1130.22;;;999.90;;
27740;SDS011;15134;48.768;9.184;2023-07-29T12:25:28;1132.32;;;999.90;;
27740;SDS011;15134;48.768;9.184;2023-07-29T12:27:54;1122.53;;;999.90;;
27740;SDS011;15134;48.768;9.184;2023-07-29T12:30:20;1128.00;;;999.90;;
27740;SDS011;15134;48.768;9.184;2023-07-29T12:32:47;1133.97;;;999.90;;
27740;SDS011;15134;48.768;9.184;2023-07-29T12:35:13;1132.65;;;999.90;;
27740;SDS011;15134;48.768;9.184;2023-07-29T12:37:39;1135.03;;;999.90;;
27740;SDS011;15134;48.768;9.184;2023-07-29T12:40:23;1131.13;;;999.90;;
27740;SDS011;15134;48.768;9.184;2023-07-29T12:42:51;1129.40;;;999.90;;
27740;SDS011;15134;48.768;9.184;2023-07-29T12:45:17;1118.77;;;999.90;;
27740;SDS011;15134;48.768;9.184;2023-07-29T12:47:43;1126.43;;;999.90;;
27740;SDS011;15134;48.768;9.184;2023-07-29T12:50:09;1120.10;;;999.90;;
27740;SDS011;15134;48.768;9.184;2023-07-29T12:52:34;1112.37;;;999.90;;
27740;SDS011;15134;48.768;9.184;2023-07-29T12:55:00;1114.88;;;999.90;;
27740;SDS011;15134;48.768;9.184;2023-07-29T12:57:27;1103.50;;;999.90;;
27740;SDS011;15134;48.768;9.184;2023-07-29T12:59:52;1110.87;;;999.90;;
27740;SDS011;15134;48.768;9.184;2023-07-29T13:02:18;1114.65;;;999.90;;
27740;SDS011;15134;48.768;9.184;2023-07-29T13:04:44;1117.65;;;999.90;;
27740;SDS011;15134;48.768;9.184;2023-07-29T13:07:10;1121.65;;;999.90;;
27740;SDS011;15134;48.768;9.184;2023-07-29T13:09:39;1125.30;;;999.90;;
27740;SDS011;15134;48.768;9.184;2023-07-29T13:12:05;1126.20;;;999.90;;
27740;SDS011;15134;48.768;9.184;2023-07-29T13:14:31;1122.05;;;999.90;;
27740;SDS011;15134;48.768;9.184;2023-07-29T13:16:56;1123.23;;;999.90;;
27740;SDS011;15134;48.768;9.184;2023-07-29T13:19:22;1121.25;;;999.90;;
27740;SDS011;15134;48.768;9.184;2023-07-29T13:21:48;1121.03;;;999.90;;
27740;SDS011;15134;48.768;9.184;2023-07-29T13:24:14;1118.80;;;999.90;;
27740;SDS011;15134;48.768;9.184;2023-07-29T13:26:40;1120.18;;;999.90;;
27740;SDS011;15134;48.768;9.184;2023-07-29T13:29:07;1121.35;;;999.90;;
27740;SDS011;15134;48.768;9.184;2023-07-29T13:31:33;1119.85;;;999.90;;
27740;SDS011;15134;48.768;9.184;2023-07-29T13:33:58;1130.37;;;999.90;;
27740;SDS011;15134;48.768;9.184;2023-07-29T13:36:24;1130.27;;;999.90;;
27740;SDS011;15134;48.768;9.184;2023-07-29T13:38:50;1129.38;;;999.90;;
27740;SDS011;15134;48.768;9.184;2023-07-29T13:41:18;1123.07;;;999.90;;
27740;SDS011;15134;48.768;9.184;2023-07-29T13:43:44;1122.90;;;999.90;;
27740;SDS011;15134;48.768;9.184;2023-07-29T13:46:10;1129.47;;;999.90;;
27740;SDS011;15134;48.768;9.184;2023-07-29T13:48:36;1128.82;;;999.90;;
27740;SDS011;15134;48.768;9.184;2023-07-29T13:51:04;1133.13;;;999.90;;
27740;SDS011;15134;48.768;9.184;2023-07-29T13:53:29;1128.88;;;999.90;;
27740;SDS011;15134;48.768;9.184;2023-07-29T13:55:55;1136.45;;;999.90;;
27740;SDS011;15134;48.768;9.184;2023-07-29T13:58:21;1135.20;;;999.90;;
27740;SDS011;15134;48.768;9.184;2023-07-29T14:00:55;1137.03;;;999.90;;